Flight Track Log - Related Links

Times and Time Zones

All times are in EDT time to prevent confusion due to time zone crossing. See the SWA279 flight status page for this flight to view local times or setup timezone preferences in your user account.

Time Position Orientation Groundspeed Altitude Reporting Facility
EDT Latitude Longitude Course Direction KTS MPH feet Rate Location/Type
Tue 06:58:08 AM 42.9500 -71.4167 341° North 161 185 1,300  Level KA90
Tue 07:00:03 AM 43.0444 -71.4600 341° North 229 264 5,800 2,571 Climbing Boston Center
Tue 07:01:03 AM 43.0867 -71.5361 307° West 250 288 8,800 2,700 Climbing Boston Center
Tue 07:02:03 AM 43.1022 -71.6553 280° West 275 316 11,200 2,600 Climbing Boston Center
Tue 07:03:03 AM 43.1050 -71.7747 272° West 322 371 14,000 2,900 Climbing Boston Center
Tue 07:04:03 AM 43.1119 -71.9281 274° West 363 418 17,000 2,500 Climbing Boston Center
Tue 07:05:03 AM 43.1106 -72.0561 269° West 377 434 19,000 2,300 Climbing Boston Center
Tue 07:06:03 AM 43.0817 -72.1928 254° West 382 440 21,600 2,350 Climbing Boston Center
Tue 07:07:03 AM 43.0839 -72.3378 271° West 382 440 23,700 2,000 Climbing Boston Center
Tue 07:08:03 AM 43.0903 -72.4914 273° West 393 452 25,600 2,050 Climbing Boston Center
Tue 07:09:03 AM 43.0900 -72.6675 270° West 405 466 27,800 2,250 Climbing Boston Center
Tue 07:10:03 AM 43.0958 -72.8239 273° West 417 480 30,100 2,000 Climbing Boston Center
Tue 07:11:03 AM 43.0994 -72.9775 272° West 417 480 31,800 1,600 Climbing Boston Center
Tue 07:12:03 AM 43.1069 -73.1111 274° West 411 473 33,300 1,650 Climbing Boston Center
Tue 07:13:03 AM 43.1122 -73.2592 273° West 400 460 35,100 1,350 Climbing Boston Center
Tue 07:14:03 AM 43.1133 -73.4014 271° West 389 448 36,000 409 Climbing Boston Center
Tue 07:15:15 AM 43.1161 -73.5464 272° West 384 442 36,000  Level Boston Center
Tue 07:16:15 AM 43.1225 -73.7231 273° West 384 442 36,000  Level Boston Center
Tue 07:17:15 AM 43.1250 -73.8681 271° West 384 442 36,000 50 Level Boston Center
Tue 07:18:15 AM 43.1294 -74.0192 272° West 384 442 36,100 550 Climbing Boston Center
Tue 07:19:15 AM 43.1333 -74.1669 272° West 389 448 37,100 900 Climbing Boston Center
Tue 07:20:15 AM 43.1372 -74.3150 272° West 389 448 37,900 450 Climbing Boston Center
Tue 07:21:15 AM 43.1389 -74.4631 271° West 389 448 38,000 50 Climbing Boston Center
Tue 07:22:15 AM 43.1425 -74.6114 272° West 389 448 38,000  Level Boston Center
Tue 07:23:15 AM 43.1458 -74.7594 272° West 389 448 38,000  Level Boston Center
Tue 07:24:15 AM 43.1469 -74.9075 271° West 389 448 38,000  Level Boston Center
Tue 07:25:15 AM 43.1497 -75.0614 271° West 389 448 38,000  Level Boston Center
Tue 07:26:15 AM 43.1525 -75.2122 271° West 394 453 38,000  Level Boston Center
Tue 07:27:15 AM 43.1528 -75.3631 270° West 400 460 38,000  Level Boston Center
Tue 07:28:15 AM 43.1547 -75.5283 271° West 400 460 38,000  Level Boston Center
Tue 07:29:27 AM 43.1569 -75.6764 271° West 400 460 38,000  Level Boston Center
Tue 07:30:27 AM 43.1600 -75.8589 271° West 400 460 38,000  Level Boston Center
Tue 07:31:27 AM 43.1614 -76.0128 271° West 400 460 38,000  Level Boston Center
Tue 07:33:14 AM 43.1389 -76.2808 264° West 402 463 38,000  Level Cleveland Center
Tue 07:34:14 AM 43.0939 -76.4206 246° West 395 455 38,000  Level Cleveland Center
Tue 07:35:14 AM 43.0489 -76.5600 246° West 400 460 38,000  Level Cleveland Center
Tue 07:36:14 AM 43.0039 -76.7050 247° West 406 467 38,000  Level Cleveland Center
Tue 07:37:14 AM 42.9619 -76.8294 245° Southwest 400 460 38,000  Level Cleveland Center
Tue 07:38:14 AM 42.9164 -76.9711 246° West 410 472 38,000  Level Cleveland Center
Tue 07:39:14 AM 42.8689 -77.1156 246° West 410 472 38,000  Level Cleveland Center
Tue 07:40:14 AM 42.8208 -77.2600 246° West 410 472 38,000  Level Cleveland Center
Tue 07:41:14 AM 42.7750 -77.4008 246° West 415 478 38,000  Level Cleveland Center
Tue 07:42:14 AM 42.7267 -77.5447 245° Southwest 415 478 38,000  Level Cleveland Center
Tue 07:43:14 AM 42.6783 -77.6967 247° West 415 478 38,000  Level Cleveland Center
Tue 07:44:14 AM 42.6319 -77.8428 247° West 410 472 38,000  Level Cleveland Center
Tue 07:45:14 AM 42.5831 -77.9775 244° Southwest 405 466 38,000  Level Cleveland Center
Tue 07:46:14 AM 42.5358 -78.1147 245° Southwest 405 466 38,000  Level Cleveland Center
Tue 07:47:14 AM 42.4889 -78.2575 246° West 405 466 38,000  Level Cleveland Center
Tue 07:48:14 AM 42.4417 -78.3969 245° Southwest 405 466 38,000  Level Cleveland Center
Tue 07:49:14 AM 42.3942 -78.5364 245° Southwest 405 466 38,000  Level Cleveland Center
Tue 07:50:14 AM 42.3464 -78.6728 245° Southwest 405 466 38,000  Level Cleveland Center
Tue 07:51:14 AM 42.2986 -78.8119 245° Southwest 405 466 38,000  Level Cleveland Center
Tue 07:52:14 AM 42.2525 -78.9336 243° Southwest 405 466 38,000  Level Cleveland Center
Tue 07:53:14 AM 42.2006 -79.0892 246° West 405 466 38,000  Level Cleveland Center
Tue 07:54:14 AM 42.1878 -79.2353 263° West 394 453 38,000  Level Cleveland Center
Tue 07:55:14 AM 42.1850 -79.3839 269° West 399 459 38,000  Level Cleveland Center
Tue 07:56:14 AM 42.1825 -79.5408 269° West 406 467 38,000  Level Cleveland Center
Tue 07:57:14 AM 42.1794 -79.6867 268° West 406 467 38,000  Level Cleveland Center
Tue 07:58:14 AM 42.1764 -79.8381 268° West 406 467 38,000  Level Cleveland Center
Tue 07:59:14 AM 42.1731 -79.9919 268° West 406 467 38,000  Level Cleveland Center
Tue 08:00:14 AM 42.1697 -80.1461 268° West 411 473 38,000  Level Cleveland Center
Tue 08:01:14 AM 42.1661 -80.3003 268° West 411 473 38,000  Level Cleveland Center
Tue 08:02:14 AM 42.1619 -80.4375 268° West 416 479 38,000  Level Cleveland Center
Tue 08:03:14 AM 42.1581 -80.5917 268° West 416 479 38,000  Level Cleveland Center
Tue 08:04:14 AM 42.1536 -80.7456 268° West 419 482 38,000  Level Cleveland Center
Tue 08:05:14 AM 42.1514 -80.8969 269° West 412 474 38,000  Level Cleveland Center
Tue 08:06:14 AM 42.1467 -81.0425 268° West 407 468 38,000  Level Cleveland Center
Tue 08:07:14 AM 42.1417 -81.1908 267° West 396 456 38,000  Level Cleveland Center
Tue 08:08:14 AM 42.1347 -81.3364 266° West 401 461 38,000  Level Cleveland Center
Tue 08:09:14 AM 42.1314 -81.4847 268° West 396 456 38,000  Level Cleveland Center
Tue 08:10:14 AM 42.1261 -81.6275 267° West 396 456 38,000  Level Cleveland Center
Tue 08:11:14 AM 42.1225 -81.7842 268° West 386 444 38,000  Level Cleveland Center
Tue 08:12:14 AM 42.1167 -81.9325 267° West 386 444 38,000  Level Cleveland Center
Tue 08:13:14 AM 42.1086 -82.0722 266° West 381 438 38,000  Level Cleveland Center
Tue 08:14:14 AM 42.1028 -82.2008 267° West 381 438 38,000  Level Cleveland Center
Tue 08:15:14 AM 42.0944 -82.3461 266° West 386 444 38,000  Level Cleveland Center
Tue 08:16:14 AM 42.0964 -82.4889 271° West 386 444 38,000  Level Cleveland Center
Tue 08:17:14 AM 42.0792 -82.6339 261° West 386 444 38,000  Level Cleveland Center
Tue 08:18:14 AM 42.0786 -82.7764 270° West 386 444 38,000  Level Cleveland Center
Tue 08:19:14 AM 42.0717 -82.9189 266° West 386 444 38,000  Level Cleveland Center
Tue 08:20:14 AM 42.0642 -83.0781 266° West 386 444 38,000  Level Cleveland Center
Tue 08:21:14 AM 42.0567 -83.2231 266° West 386 444 38,000  Level Cleveland Center
Tue 08:22:14 AM 42.0514 -83.3656 267° West 386 444 38,000  Level Cleveland Center
Tue 08:23:14 AM 42.0419 -83.4883 264° West 381 438 38,000  Level Cleveland Center
Tue 08:24:14 AM 42.0275 -83.6442 263° West 381 438 38,000  Level Cleveland Center
Tue 08:25:14 AM 42.0156 -83.7806 263° West 386 444 38,000  Level Cleveland Center
Tue 08:26:14 AM 42.0050 -83.9225 264° West 386 444 38,000  Level Cleveland Center
Tue 08:28:32 AM 41.9783 -84.2169 263° West 379 436 38,000  Level Chicago Center
Tue 08:29:34 AM 41.9619 -84.3886 263° West 386 444 38,000  Level Chicago Center
Tue 08:30:36 AM 41.9503 -84.5211 263° West 376 433 38,000  Level Chicago Center
Tue 08:31:38 AM 41.9350 -84.6564 261° West 371 427 38,000  Level Chicago Center
Tue 08:32:40 AM 41.9233 -84.7914 263° West 369 425 38,000  Level Chicago Center
Tue 08:33:41 AM 41.9097 -84.9264 262° West 367 422 38,000  Level Chicago Center
Tue 08:34:43 AM 41.8922 -85.0931 262° West 377 434 38,000  Level Chicago Center
Tue 08:35:45 AM 41.8783 -85.2314 262° West 378 435 38,000  Level Chicago Center
Tue 08:36:47 AM 41.8658 -85.3689 263° West 378 435 38,000  Level Chicago Center
Tue 08:37:49 AM 41.8519 -85.5050 262° West 376 433 38,000  Level Chicago Center
Tue 08:38:51 AM 41.8378 -85.6406 262° West 373 429 38,000  Level Chicago Center
Tue 08:39:53 AM 41.8211 -85.8031 262° West 370 426 38,000  Level Chicago Center
Tue 08:40:54 AM 41.8075 -85.9364 262° West 366 421 38,000  Level Chicago Center
Tue 08:41:56 AM 41.7944 -86.0708 263° West 365 420 38,000  Level Chicago Center
Tue 08:42:58 AM 41.7800 -86.2033 262° West 362 417 38,000  Level Chicago Center
Tue 08:44:00 AM 41.7672 -86.3342 263° West 355 409 38,000  Level Chicago Center
Tue 08:45:01 AM 41.7536 -86.4650 262° West 356 410 38,000  Level Chicago Center
Tue 08:46:03 AM 41.7369 -86.6181 262° West 346 398 38,000  Level Chicago Center
Tue 08:47:05 AM 41.7256 -86.7311 262° West 343 395 38,000  Level Chicago Center
Tue 08:48:06 AM 41.7117 -86.8536 261° West 336 387 38,000  Level Chicago Center
Tue 08:49:08 AM 41.6981 -87.0019 263° West 336 387 38,000  Level Chicago Center
Tue 08:50:10 AM 41.6833 -87.1225 261° West 331 381 38,000  Level Chicago Center
Tue 08:51:12 AM 41.6706 -87.2419 262° West 327 376 38,000  Level Chicago Center
Tue 08:52:13 AM 41.6572 -87.3589 261° West 322 371 38,000  Level Chicago Center
Tue 08:53:15 AM 41.6439 -87.4744 261° West 318 366 38,000  Level Chicago Center
Tue 08:54:17 AM 41.6311 -87.5917 262° West 321 369 38,000  Level Chicago Center
Tue 08:55:18 AM 41.6142 -87.7342 261° West 325 374 38,000  Level Chicago Center
Tue 08:56:20 AM 41.6014 -87.8519 262° West 324 373 38,000  Level Chicago Center
Tue 08:57:22 AM 41.5875 -87.9686 261° West 324 373 38,000  Level Chicago Center
Tue 08:58:23 AM 41.5739 -88.0844 261° West 323 372 38,000  Level Chicago Center
Tue 08:59:25 AM 41.5575 -88.2244 261° West 324 373 38,000  Level Chicago Center
Tue 09:00:28 AM 41.5458 -88.3417 262° West 324 373 38,000  Level Chicago Center
Tue 09:01:28 AM 41.5467 -88.4617 271° West 324 373 38,000  Level Chicago Center
Tue 09:02:30 AM 41.5469 -88.5833 270° West 329 379 38,000  Level Chicago Center
Tue 09:03:32 AM 41.5475 -88.7056 270° West 332 382 38,000  Level Chicago Center
Tue 09:04:33 AM 41.5478 -88.8269 270° West 330 380 38,000  Level Chicago Center
Tue 09:05:35 AM 41.5481 -88.9744 270° West 332 382 38,000  Level Chicago Center
Tue 09:06:37 AM 41.5483 -89.0972 270° West 333 383 38,000  Level Chicago Center
Tue 09:07:38 AM 41.5489 -89.2200 270° West 334 384 38,000  Level Chicago Center
Tue 09:08:40 AM 41.5483 -89.3422 270° West 330 380 38,000  Level Chicago Center
Tue 09:09:42 AM 41.5481 -89.4636 270° West 330 380 38,000  Level Chicago Center
Tue 09:10:43 AM 41.5475 -89.6000 270° West 333 383 38,000  Level Chicago Center
Tue 09:11:45 AM 41.5464 -89.7231 269° West 334 384 38,000  Level Chicago Center
Tue 09:12:47 AM 41.5453 -89.8467 269° West 333 383 38,000  Level Chicago Center
Tue 09:13:49 AM 41.5406 -89.9678 267° West 329 379 38,000  Level Chicago Center
Tue 09:14:50 AM 41.5308 -90.0931 264° West 336 387 38,000  Level Chicago Center
Tue 09:15:52 AM 41.5200 -90.2417 264° West 336 387 38,000  Level Chicago Center
Tue 09:16:54 AM 41.5106 -90.3644 264° West 335 386 38,000  Level Chicago Center
Tue 09:17:56 AM 41.5014 -90.4867 264° West 334 384 38,000  Level Chicago Center
Tue 09:18:58 AM 41.4917 -90.6094 264° West 335 386 38,000  Level Chicago Center
Tue 09:19:59 AM 41.4811 -90.7350 264° West 340 391 38,000  Level Chicago Center
Tue 09:21:01 AM 41.4700 -90.8614 263° West 342 394 38,000  Level Chicago Center
Tue 09:22:03 AM 41.4606 -90.9856 264° West 339 390 38,000  Level Chicago Center
Tue 09:23:05 AM 41.4478 -91.1367 264° West 341 392 38,000  Level Chicago Center
Tue 09:24:07 AM 41.4378 -91.2614 264° West 340 391 38,000  Level Chicago Center
Tue 09:25:09 AM 41.4281 -91.3744 263° West 343 395 38,000  Level Chicago Center
Tue 09:26:11 AM 41.4153 -91.5250 264° West 343 395 38,000  Level Chicago Center
Tue 09:27:12 AM 41.4039 -91.6500 263° West 342 394 38,000  Level Chicago Center
Tue 09:28:14 AM 41.3936 -91.7744 264° West 342 394 38,000  Level Chicago Center
Tue 09:29:16 AM 41.3825 -91.8975 263° West 337 388 38,000  Level Chicago Center
Tue 09:30:18 AM 41.3717 -92.0222 263° West 340 391 38,000  Level Chicago Center
Tue 09:31:20 AM 41.3578 -92.1675 263° West 333 383 38,000  Level Chicago Center
Tue 09:32:22 AM 41.3461 -92.2911 263° West 337 388 38,000  Level Chicago Center
Tue 09:33:24 AM 41.3339 -92.4181 263° West 335 386 38,000  Level Chicago Center
Tue 09:34:26 AM 41.3222 -92.5425 263° West 340 391 38,000  Level Chicago Center
Tue 09:35:28 AM 41.3108 -92.6639 263° West 337 388 38,000  Level Chicago Center
Tue 09:35:50 AM 41.3083 -92.6917 263° West 339 390 38,000  Level Minneapolis Center
Tue 09:36:52 AM 41.2939 -92.8375 263° West 337 388 38,000  Level Minneapolis Center
Tue 09:37:53 AM 41.2817 -92.9589 262° West 335 386 38,000  Level Minneapolis Center
Tue 09:38:55 AM 41.2700 -93.0817 263° West 337 388 38,000  Level Minneapolis Center
Tue 09:39:56 AM 41.2553 -93.2300 263° West 340 391 38,000  Level Minneapolis Center
Tue 09:40:58 AM 41.2417 -93.3517 262° West 339 390 38,000  Level Minneapolis Center
Tue 09:41:59 AM 41.2286 -93.4761 262° West 340 391 38,000  Level Minneapolis Center
Tue 09:43:01 AM 41.2164 -93.5950 262° West 335 386 38,000  Level Minneapolis Center
Tue 09:44:02 AM 41.2042 -93.7164 262° West 334 384 38,000  Level Minneapolis Center
Tue 09:45:04 AM 41.1925 -93.8375 263° West 334 384 38,000  Level Minneapolis Center
Tue 09:46:05 AM 41.2211 -93.9753 285° West 347 399 38,000  Level Minneapolis Center
Tue 09:47:07 AM 41.3197 -94.0419 333° Northwest 392 451 38,000  Level Minneapolis Center
Tue 09:48:21 AM 41.4439 -94.1106 338° Northwest 402 463 38,000  Level Minneapolis Center
Tue 09:49:22 AM 41.5008 -94.2072 308° West 348 400 38,000  Level Minneapolis Center
Tue 09:50:24 AM 41.4906 -94.3275 264° West 337 388 38,000  Level Minneapolis Center
Tue 09:51:25 AM 41.4836 -94.4269 265° West 336 387 38,000  Level Minneapolis Center
Tue 09:52:27 AM 41.4700 -94.5981 264° West 333 383 38,000  Level Minneapolis Center
Tue 09:53:29 AM 41.4597 -94.7219 264° West 334 384 38,000  Level Minneapolis Center
Tue 09:54:30 AM 41.4497 -94.8500 264° West 340 391 38,000  Level Minneapolis Center
Tue 09:55:32 AM 41.4375 -94.9756 263° West 342 394 38,000  Level Minneapolis Center
Tue 09:56:33 AM 41.4272 -95.1031 264° West 346 398 38,000  Level Minneapolis Center
Tue 09:57:35 AM 41.4156 -95.2294 263° West 344 396 38,000  Level Minneapolis Center
Tue 09:58:36 AM 41.4036 -95.3569 263° West 347 399 38,000  Level Minneapolis Center
Tue 09:59:38 AM 41.3917 -95.4817 263° West 344 396 38,000  Level Minneapolis Center
Tue 10:00:41 AM 41.3767 -95.6319 262° West 342 394 38,000  Level Minneapolis Center
Tue 10:01:42 AM 41.3656 -95.7561 263° West 339 390 38,000  Level Minneapolis Center
Tue 10:02:44 AM 41.3539 -95.8825 263° West 342 394 38,000  Level Minneapolis Center
Tue 10:03:46 AM 41.3414 -96.0061 262° West 339 390 38,000  Level Minneapolis Center
Tue 10:04:47 AM 41.3297 -96.1264 263° West 331 381 38,000  Level Minneapolis Center
Tue 10:05:49 AM 41.3175 -96.2508 263° West 337 388 38,000  Level Minneapolis Center
Tue 10:06:50 AM 41.3042 -96.3872 263° West 342 394 38,000  Level Minneapolis Center
Tue 10:07:52 AM 41.2911 -96.5106 262° West 338 389 38,000  Level Minneapolis Center
Tue 10:08:54 AM 41.2781 -96.6367 262° West 342 394 38,000  Level Minneapolis Center
Tue 10:09:55 AM 41.2642 -96.7611 262° West 341 392 38,000  Level Minneapolis Center
Tue 10:10:57 AM 41.2514 -96.8867 262° West 343 395 38,000  Level Minneapolis Center
Tue 10:11:58 AM 41.2350 -97.0347 262° West 339 390 38,000  Level Minneapolis Center
Tue 10:13:00 AM 41.2214 -97.1586 262° West 339 390 38,000  Level Minneapolis Center
Tue 10:14:02 AM 41.2078 -97.2808 262° West 337 388 38,000  Level Minneapolis Center
Tue 10:15:03 AM 41.1961 -97.3961 262° West 338 389 38,000  Level Minneapolis Center
Tue 10:16:05 AM 41.1817 -97.5203 261° West 340 391 38,000  Level Minneapolis Center
Tue 10:17:07 AM 41.1644 -97.6689 261° West 339 390 38,000  Level Minneapolis Center
Tue 10:18:08 AM 41.1506 -97.7936 262° West 341 392 38,000  Level Minneapolis Center
Tue 10:19:10 AM 41.1364 -97.9189 262° West 342 394 38,000  Level Minneapolis Center
Tue 10:20:11 AM 41.1219 -98.0475 262° West 349 402 38,000  Level Minneapolis Center
Tue 10:21:13 AM 41.1072 -98.1744 261° West 349 402 38,000  Level Minneapolis Center
Tue 10:22:15 AM 41.0917 -98.3011 261° West 348 400 38,000  Level Minneapolis Center
Tue 10:23:16 AM 41.0767 -98.4311 261° West 353 406 38,000  Level Minneapolis Center
Tue 10:24:18 AM 41.0600 -98.5683 261° West 357 411 38,000  Level Minneapolis Center
Tue 10:25:20 AM 41.0447 -98.6978 261° West 357 411 38,000  Level Minneapolis Center
Tue 10:26:22 AM 41.0289 -98.8264 261° West 355 409 38,000  Level Minneapolis Center
Tue 10:27:23 AM 41.0089 -98.9819 260° West 356 410 38,000  Level Minneapolis Center
Tue 10:28:25 AM 40.9933 -99.1111 261° West 357 411 38,000  Level Minneapolis Center
Tue 10:28:59 AM 40.9864 -99.1672 261° West 356 410 38,000  Level Denver Center
Tue 10:30:01 AM 40.9700 -99.2967 261° West 355 409 38,000  Level Denver Center
Tue 10:31:03 AM 40.9489 -99.4528 260° West 358 412 38,000  Level Denver Center
Tue 10:32:04 AM 40.9325 -99.5806 260° West 354 407 38,000  Level Denver Center
Tue 10:33:06 AM 40.9161 -99.7100 261° West 356 410 38,000  Level Denver Center
Tue 10:34:07 AM 40.9019 -99.8136 260° West 357 411 38,000  Level Denver Center
Tue 10:35:10 AM 40.8808 -99.9669 260° West 358 412 38,000  Level Denver Center
Tue 10:36:11 AM 40.8617 -100.1114 260° West 358 412 38,000  Level Denver Center
Tue 10:37:13 AM 40.8442 -100.2372 260° West 363 418 38,000  Level Denver Center
Tue 10:38:15 AM 40.8242 -100.3828 260° West 363 418 38,000  Level Denver Center
Tue 10:39:17 AM 40.8075 -100.5069 260° West 361 415 38,000  Level Denver Center
Tue 10:40:18 AM 40.7903 -100.6325 260° West 360 414 38,000  Level Denver Center
Tue 10:41:20 AM 40.7667 -100.7831 258° West 362 417 38,000  Level Denver Center
Tue 10:42:22 AM 40.7447 -100.9078 257° West 360 414 38,000  Level Denver Center
Tue 10:43:24 AM 40.7244 -101.0328 258° West 363 418 38,000  Level Denver Center
Tue 10:44:26 AM 40.7003 -101.1758 257° West 357 411 38,000  Level Denver Center
Tue 10:45:28 AM 40.6781 -101.2975 256° West 357 411 38,000  Level Denver Center
Tue 10:46:29 AM 40.6572 -101.4194 257° West 357 411 38,000  Level Denver Center
Tue 10:47:32 AM 40.6317 -101.5603 257° West 355 409 38,000  Level Denver Center
Tue 10:48:34 AM 40.6058 -101.7017 257° West 357 411 38,000  Level Denver Center
Tue 10:49:36 AM 40.5836 -101.8236 257° West 359 413 38,000  Level Denver Center
Tue 10:50:37 AM 40.5581 -101.9678 257° West 361 415 38,000  Level Denver Center
Tue 10:51:39 AM 40.5353 -102.0911 256° West 364 419 38,000  Level Denver Center
Tue 10:52:41 AM 40.5100 -102.2328 257° West 359 413 38,000  Level Denver Center
Tue 10:53:43 AM 40.4867 -102.3553 256° West 360 414 38,000  Level Denver Center
Tue 10:54:45 AM 40.4656 -102.4778 257° West 361 415 38,000 -484 Level Denver Center
Tue 10:55:47 AM 40.4383 -102.6183 256° West 355 409 37,000 -968 Descending Denver Center
Tue 10:56:49 AM 40.4139 -102.7433 256° West 346 398 36,000 -919 Descending Denver Center
Tue 10:57:51 AM 40.3908 -102.8697 257° West 354 407 35,100 -968 Descending Denver Center
Tue 10:58:53 AM 40.3672 -102.9908 256° West 342 394 34,000 -726 Descending Denver Center
Tue 10:59:55 AM 40.3444 -103.1119 256° West 341 392 33,600 -968 Descending Denver Center
Tue 11:00:57 AM 40.3206 -103.2342 256° West 345 397 32,000 -1,790 Descending Denver Center
Tue 11:01:59 AM 40.2950 -103.3708 256° West 330 380 29,900 -1,984 Descending Denver Center
Tue 11:03:01 AM 40.2733 -103.4800 255° West 310 357 27,900 -1,984 Descending Denver Center
Tue 11:04:03 AM 40.2522 -103.5883 256° West 306 352 25,800 -1,984 Descending Denver Center
Tue 11:05:05 AM 40.2306 -103.6975 255° West 307 353 23,800 -1,548 Descending Denver Center
Tue 11:06:07 AM 40.2097 -103.8064 256° West 288 331 22,600 -1,200 Descending Denver Center
Tue 11:07:10 AM 40.1797 -103.9025 248° West 266 306 21,300 -1,355 Descending Denver Center
Tue 11:08:11 AM 40.1408 -103.9814 237° Southwest 259 298 19,800 -1,366 Descending Denver Center
Tue 11:09:13 AM 40.1044 -104.0611 239° Southwest 256 295 18,500 -1,306 Descending Denver Center
Tue 11:10:15 AM 40.0644 -104.1483 239° Southwest 263 303 17,100 -774 Descending Denver Center
Tue 11:11:17 AM 40.0253 -104.2292 238° Southwest 266 306 16,900 -726 Descending Denver Center
Tue 11:12:19 AM 39.9892 -104.3094 240° Southwest 240 276 15,600 -1,240 Descending Denver Center
Tue 11:13:18 AM 39.9500 -104.3833 235° Southwest 244 281 14,400 -1,160 Descending Denver TRACON
Tue 11:14:18 AM 39.9167 -104.4667 242° Southwest 246 283 13,300 -1,158 Descending Denver TRACON
Tue 11:15:12 AM 39.8667 -104.5000 207° Southwest 265 305 12,200 -1,211 Descending Denver TRACON
Tue 11:16:12 AM 39.8000 -104.5000 180° South 249 287 11,000 -947 Descending Denver TRACON
Tue 11:16:28 AM 39.7861 -104.5017 185° South 249 287 11,000 -692 Level Denver Center
Tue 11:17:30 AM 39.7192 -104.5025 181° South 226 260 10,100 -919 Descending Denver Center
Tue 11:18:32 AM 39.6578 -104.5036 181° South 223 257 9,100 -532 Descending Denver Center
Tue 11:19:34 AM 39.5944 -104.5047 181° South 212 244 9,000 -48 Descending Denver Center
Tue 11:20:36 AM 39.5333 -104.5053 180° South 217 250 9,000  Level Denver Center
Tue 11:21:38 AM 39.4831 -104.5389 207° Southwest 231 266 9,000 -484 Level Denver Center
Tue 11:22:40 AM 39.5022 -104.6022 291° West 214 246 8,000 -484 Descending Denver Center
Tue 11:23:42 AM 39.5519 -104.6350 333° Northwest 201 231 8,000  Level Denver Center
Tue 11:24:44 AM 39.6072 -104.6456 352° North 182 209 8,000  Level Denver Center
Tue 11:25:46 AM 39.6569 -104.6442 North 180 207 8,000  Level Denver Center
Tue 11:26:48 AM 39.7075 -104.6433 North 173 199 8,000 -484 Level Denver Center
Tue 11:27:50 AM 39.7558 -104.6428 North 175 201 7,000 -919 Descending Denver Center
Tue 11:28:52 AM 39.8014 -104.6422 North 147 169 6,100 -823 Descending Denver Center
Tue 11:29:54 AM 39.8367 -104.6422 360° North 140 161 5,300 -774 Descending Denver Center
Tue 11:31:00 AM 39.8500 -104.6667 North  Level FlightAware Approximate

Login

Don't have an account? Register now (free) for customized features, flight alerts, and more!